sensor_id;sensor_type;location;lat;lon;timestamp;temperature;humidity
8420;DHT22;4247;48.550;8.822;2023-07-22T00:00:46;14.10;99.90
8420;DHT22;4247;48.550;8.822;2023-07-22T00:03:12;14.00;99.90
8420;DHT22;4247;48.550;8.822;2023-07-22T00:05:39;14.00;99.90
8420;DHT22;4247;48.550;8.822;2023-07-22T00:08:06;14.00;99.90
8420;DHT22;4247;48.550;8.822;2023-07-22T00:10:34;14.00;99.90
8420;DHT22;4247;48.550;8.822;2023-07-22T00:13:01;14.00;99.90
8420;DHT22;4247;48.550;8.822;2023-07-22T00:15:28;14.00;99.90
8420;DHT22;4247;48.550;8.822;2023-07-22T00:17:55;14.00;99.90
8420;DHT22;4247;48.550;8.822;2023-07-22T00:20:22;14.00;99.90
8420;DHT22;4247;48.550;8.822;2023-07-22T00:22:49;14.00;99.90
8420;DHT22;4247;48.550;8.822;2023-07-22T00:25:16;14.00;99.90
8420;DHT22;4247;48.550;8.822;2023-07-22T00:27:44;14.00;99.90
8420;DHT22;4247;48.550;8.822;2023-07-22T00:30:11;14.00;99.90
8420;DHT22;4247;48.550;8.822;2023-07-22T00:32:38;13.90;99.90
8420;DHT22;4247;48.550;8.822;2023-07-22T00:35:07;13.90;99.90
8420;DHT22;4247;48.550;8.822;2023-07-22T00:37:35;13.90;99.90
8420;DHT22;4247;48.550;8.822;2023-07-22T00:40:02;13.90;99.90
8420;DHT22;4247;48.550;8.822;2023-07-22T00:42:29;13.90;99.90
8420;DHT22;4247;48.550;8.822;2023-07-22T00:44:57;13.80;99.90
8420;DHT22;4247;48.550;8.822;2023-07-22T00:47:24;13.80;99.90
8420;DHT22;4247;48.550;8.822;2023-07-22T00:49:51;13.80;99.90
8420;DHT22;4247;48.550;8.822;2023-07-22T00:52:18;13.70;99.90
8420;DHT22;4247;48.550;8.822;2023-07-22T00:54:45;13.80;99.90
8420;DHT22;4247;48.550;8.822;2023-07-22T00:57:12;13.80;99.90
8420;DHT22;4247;48.550;8.822;2023-07-22T00:59:39;13.70;99.90
8420;DHT22;4247;48.550;8.822;2023-07-22T01:02:07;13.80;99.90
8420;DHT22;4247;48.550;8.822;2023-07-22T01:04:35;13.70;99.90
8420;DHT22;4247;48.550;8.822;2023-07-22T01:07:03;13.70;99.90
8420;DHT22;4247;48.550;8.822;2023-07-22T01:09:34;13.70;99.90
8420;DHT22;4247;48.550;8.822;2023-07-22T01:12:02;13.70;99.90
8420;DHT22;4247;48.550;8.822;2023-07-22T01:14:29;13.70;99.90
8420;DHT22;4247;48.550;8.822;2023-07-22T01:16:55;13.70;99.90
8420;DHT22;4247;48.550;8.822;2023-07-22T01:19:24;13.60;99.90
8420;DHT22;4247;48.550;8.822;2023-07-22T01:21:51;13.60;99.90
8420;DHT22;4247;48.550;8.822;2023-07-22T01:24:21;13.60;99.90
8420;DHT22;4247;48.550;8.822;2023-07-22T01:26:48;13.60;99.90
8420;DHT22;4247;48.550;8.822;2023-07-22T01:29:14;13.60;99.90
8420;DHT22;4247;48.550;8.822;2023-07-22T01:31:41;13.60;99.90
8420;DHT22;4247;48.550;8.822;2023-07-22T01:34:08;13.60;99.90
8420;DHT22;4247;48.550;8.822;2023-07-22T01:36:34;13.50;99.90
8420;DHT22;4247;48.550;8.822;2023-07-22T01:39:01;13.50;99.90
8420;DHT22;4247;48.550;8.822;2023-07-22T01:41:32;13.40;99.90
8420;DHT22;4247;48.550;8.822;2023-07-22T01:43:59;13.40;99.90
8420;DHT22;4247;48.550;8.822;2023-07-22T01:46:26;13.40;99.90
8420;DHT22;4247;48.550;8.822;2023-07-22T01:48:52;13.40;99.90
8420;DHT22;4247;48.550;8.822;2023-07-22T01:51:19;13.40;99.90
8420;DHT22;4247;48.550;8.822;2023-07-22T01:53:46;13.40;99.90
8420;DHT22;4247;48.550;8.822;2023-07-22T01:56:12;13.30;99.90
8420;DHT22;4247;48.550;8.822;2023-07-22T01:58:41;13.30;99.90
8420;DHT22;4247;48.550;8.822;2023-07-22T02:01:07;13.30;99.90
8420;DHT22;4247;48.550;8.822;2023-07-22T02:03:34;13.30;99.90
8420;DHT22;4247;48.550;8.822;2023-07-22T02:06:02;13.20;99.90
8420;DHT22;4247;48.550;8.822;2023-07-22T02:08:29;13.30;99.90
8420;DHT22;4247;48.550;8.822;2023-07-22T02:11:00;13.30;99.90
8420;DHT22;4247;48.550;8.822;2023-07-22T02:13:26;13.30;99.90
8420;DHT22;4247;48.550;8.822;2023-07-22T02:15:54;13.30;99.90
8420;DHT22;4247;48.550;8.822;2023-07-22T02:18:21;13.30;99.90
8420;DHT22;4247;48.550;8.822;2023-07-22T02:20:48;13.20;99.90
8420;DHT22;4247;48.550;8.822;2023-07-22T02:23:15;13.10;99.90
8420;DHT22;4247;48.550;8.822;2023-07-22T02:25:41;13.10;99.90
8420;DHT22;4247;48.550;8.822;2023-07-22T02:28:08;13.10;99.90
8420;DHT22;4247;48.550;8.822;2023-07-22T02:30:35;13.00;99.90
8420;DHT22;4247;48.550;8.822;2023-07-22T02:33:05;13.00;99.90
8420;DHT22;4247;48.550;8.822;2023-07-22T02:35:32;13.00;99.90
8420;DHT22;4247;48.550;8.822;2023-07-22T02:37:59;13.00;99.90
8420;DHT22;4247;48.550;8.822;2023-07-22T02:40:27;13.00;99.90
8420;DHT22;4247;48.550;8.822;2023-07-22T02:42:53;13.00;99.90
8420;DHT22;4247;48.550;8.822;2023-07-22T02:45:20;13.00;99.90
8420;DHT22;4247;48.550;8.822;2023-07-22T02:47:47;13.00;99.90
8420;DHT22;4247;48.550;8.822;2023-07-22T02:50:15;13.00;99.90
8420;DHT22;4247;48.550;8.822;2023-07-22T02:52:42;12.90;99.90
8420;DHT22;4247;48.550;8.822;2023-07-22T02:55:10;12.90;99.90
8420;DHT22;4247;48.550;8.822;2023-07-22T02:57:37;12.80;99.90
8420;DHT22;4247;48.550;8.822;2023-07-22T03:00:06;12.90;99.90
8420;DHT22;4247;48.550;8.822;2023-07-22T03:02:34;12.90;99.90
8420;DHT22;4247;48.550;8.822;2023-07-22T03:05:00;12.90;99.90
8420;DHT22;4247;48.550;8.822;2023-07-22T03:07:29;12.90;99.90
8420;DHT22;4247;48.550;8.822;2023-07-22T03:09:56;12.90;99.90
8420;DHT22;4247;48.550;8.822;2023-07-22T03:12:22;12.90;99.90
8420;DHT22;4247;48.550;8.822;2023-07-22T03:14:49;12.90;99.90
8420;DHT22;4247;48.550;8.822;2023-07-22T03:17:18;12.90;99.90
8420;DHT22;4247;48.550;8.822;2023-07-22T03:19:44;12.90;99.90
8420;DHT22;4247;48.550;8.822;2023-07-22T03:22:13;12.90;99.90
8420;DHT22;4247;48.550;8.822;2023-07-22T03:24:43;12.90;99.90
8420;DHT22;4247;48.550;8.822;2023-07-22T03:27:09;12.90;99.90
8420;DHT22;4247;48.550;8.822;2023-07-22T03:29:36;12.80;99.90
8420;DHT22;4247;48.550;8.822;2023-07-22T03:32:04;12.90;99.90
8420;DHT22;4247;48.550;8.822;2023-07-22T03:34:31;12.80;99.90
8420;DHT22;4247;48.550;8.822;2023-07-22T03:36:58;12.80;99.90
8420;DHT22;4247;48.550;8.822;2023-07-22T03:39:25;12.70;99.90
8420;DHT22;4247;48.550;8.822;2023-07-22T03:41:53;12.70;99.90
8420;DHT22;4247;48.550;8.822;2023-07-22T03:44:19;12.70;99.90
8420;DHT22;4247;48.550;8.822;2023-07-22T03:46:46;12.60;99.90
8420;DHT22;4247;48.550;8.822;2023-07-22T03:49:13;12.60;99.90
8420;DHT22;4247;48.550;8.822;2023-07-22T03:51:39;12.60;99.90
8420;DHT22;4247;48.550;8.822;2023-07-22T03:54:06;12.60;99.90
8420;DHT22;4247;48.550;8.822;2023-07-22T03:56:33;12.60;99.90
8420;DHT22;4247;48.550;8.822;2023-07-22T03:59:01;12.60;99.90
8420;DHT22;4247;48.550;8.822;2023-07-22T04:01:28;12.60;99.90
8420;DHT22;4247;48.550;8.822;2023-07-22T04:03:55;12.60;99.90
8420;DHT22;4247;48.550;8.822;2023-07-22T04:06:21;12.60;99.90
8420;DHT22;4247;48.550;8.822;2023-07-22T04:08:48;12.70;99.90
8420;DHT22;4247;48.550;8.822;2023-07-22T04:11:15;12.70;99.90
8420;DHT22;4247;48.550;8.822;2023-07-22T04:13:42;12.70;99.90
8420;DHT22;4247;48.550;8.822;2023-07-22T04:16:10;12.70;99.90
8420;DHT22;4247;48.550;8.822;2023-07-22T04:18:36;12.80;99.90
8420;DHT22;4247;48.550;8.822;2023-07-22T04:21:03;12.90;99.90
8420;DHT22;4247;48.550;8.822;2023-07-22T04:23:30;12.90;99.90
8420;DHT22;4247;48.550;8.822;2023-07-22T04:25:58;12.80;99.90
8420;DHT22;4247;48.550;8.822;2023-07-22T04:28:25;12.70;99.90
8420;DHT22;4247;48.550;8.822;2023-07-22T04:30:55;12.80;99.90
8420;DHT22;4247;48.550;8.822;2023-07-22T04:33:24;12.80;99.90
8420;DHT22;4247;48.550;8.822;2023-07-22T04:35:53;12.90;99.90
8420;DHT22;4247;48.550;8.822;2023-07-22T04:38:21;13.00;99.90
8420;DHT22;4247;48.550;8.822;2023-07-22T04:40:47;13.10;99.90
8420;DHT22;4247;48.550;8.822;2023-07-22T04:43:14;13.10;99.90
8420;DHT22;4247;48.550;8.822;2023-07-22T04:45:41;13.30;99.90
8420;DHT22;4247;48.550;8.822;2023-07-22T04:48:08;13.40;99.90
8420;DHT22;4247;48.550;8.822;2023-07-22T04:50:36;13.50;99.90
8420;DHT22;4247;48.550;8.822;2023-07-22T04:53:06;13.70;99.90
8420;DHT22;4247;48.550;8.822;2023-07-22T04:55:33;13.80;99.90
8420;DHT22;4247;48.550;8.822;2023-07-22T04:58:00;13.80;99.90
8420;DHT22;4247;48.550;8.822;2023-07-22T05:00:26;13.90;99.90
8420;DHT22;4247;48.550;8.822;2023-07-22T05:02:54;14.00;99.90
8420;DHT22;4247;48.550;8.822;2023-07-22T05:05:22;14.10;99.90
8420;DHT22;4247;48.550;8.822;2023-07-22T05:07:50;14.10;99.90
8420;DHT22;4247;48.550;8.822;2023-07-22T05:10:18;14.20;99.90
8420;DHT22;4247;48.550;8.822;2023-07-22T05:12:45;14.20;99.90
8420;DHT22;4247;48.550;8.822;2023-07-22T05:15:12;14.30;99.90
8420;DHT22;4247;48.550;8.822;2023-07-22T05:17:39;14.30;99.90
8420;DHT22;4247;48.550;8.822;2023-07-22T05:20:07;14.30;99.90
8420;DHT22;4247;48.550;8.822;2023-07-22T05:22:35;14.30;99.90
8420;DHT22;4247;48.550;8.822;2023-07-22T05:25:05;14.40;99.90
8420;DHT22;4247;48.550;8.822;2023-07-22T05:27:32;14.40;99.90
8420;DHT22;4247;48.550;8.822;2023-07-22T05:29:59;14.40;99.90
8420;DHT22;4247;48.550;8.822;2023-07-22T05:32:26;14.40;99.90
8420;DHT22;4247;48.550;8.822;2023-07-22T05:34:54;14.50;99.90
8420;DHT22;4247;48.550;8.822;2023-07-22T05:37:21;14.70;99.90
8420;DHT22;4247;48.550;8.822;2023-07-22T05:39:48;14.90;99.90
8420;DHT22;4247;48.550;8.822;2023-07-22T05:42:16;15.00;99.90
8420;DHT22;4247;48.550;8.822;2023-07-22T05:44:43;15.20;99.90
8420;DHT22;4247;48.550;8.822;2023-07-22T05:47:09;15.20;99.90
8420;DHT22;4247;48.550;8.822;2023-07-22T05:49:36;15.40;99.90
8420;DHT22;4247;48.550;8.822;2023-07-22T05:52:03;15.40;99.90
8420;DHT22;4247;48.550;8.822;2023-07-22T05:54:30;15.60;99.90
8420;DHT22;4247;48.550;8.822;2023-07-22T05:56:57;15.70;99.90
8420;DHT22;4247;48.550;8.822;2023-07-22T05:59:25;15.70;99.90
8420;DHT22;4247;48.550;8.822;2023-07-22T06:01:51;15.80;99.90
8420;DHT22;4247;48.550;8.822;2023-07-22T06:04:18;16.00;99.90
8420;DHT22;4247;48.550;8.822;2023-07-22T06:06:45;16.10;99.90
8420;DHT22;4247;48.550;8.822;2023-07-22T06:09:12;16.30;99.90
8420;DHT22;4247;48.550;8.822;2023-07-22T06:11:38;16.40;99.90
8420;DHT22;4247;48.550;8.822;2023-07-22T06:14:05;16.60;99.90
8420;DHT22;4247;48.550;8.822;2023-07-22T06:16:33;16.70;99.90
8420;DHT22;4247;48.550;8.822;2023-07-22T06:19:00;16.80;99.90
8420;DHT22;4247;48.550;8.822;2023-07-22T06:21:27;17.00;99.90
8420;DHT22;4247;48.550;8.822;2023-07-22T06:23:53;17.10;99.90
8420;DHT22;4247;48.550;8.822;2023-07-22T06:26:20;17.10;99.90
8420;DHT22;4247;48.550;8.822;2023-07-22T06:28:47;17.20;99.90
8420;DHT22;4247;48.550;8.822;2023-07-22T06:31:13;17.30;99.90
8420;DHT22;4247;48.550;8.822;2023-07-22T06:33:42;17.50;99.90
8420;DHT22;4247;48.550;8.822;2023-07-22T06:36:09;17.60;99.90
8420;DHT22;4247;48.550;8.822;2023-07-22T06:38:36;17.80;99.90
8420;DHT22;4247;48.550;8.822;2023-07-22T06:41:02;17.90;99.90
8420;DHT22;4247;48.550;8.822;2023-07-22T06:43:29;18.00;99.90
8420;DHT22;4247;48.550;8.822;2023-07-22T06:45:56;18.20;99.90
8420;DHT22;4247;48.550;8.822;2023-07-22T06:48:22;18.30;99.90
8420;DHT22;4247;48.550;8.822;2023-07-22T06:50:50;18.50;99.90
8420;DHT22;4247;48.550;8.822;2023-07-22T06:53:17;18.60;99.90
8420;DHT22;4247;48.550;8.822;2023-07-22T06:55:50;18.70;99.90
8420;DHT22;4247;48.550;8.822;2023-07-22T06:58:17;18.90;99.90
8420;DHT22;4247;48.550;8.822;2023-07-22T07:00:44;19.10;99.90
8420;DHT22;4247;48.550;8.822;2023-07-22T07:03:10;19.20;99.90
8420;DHT22;4247;48.550;8.822;2023-07-22T07:05:37;19.20;99.90
8420;DHT22;4247;48.550;8.822;2023-07-22T07:08:08;19.40;99.90
8420;DHT22;4247;48.550;8.822;2023-07-22T07:10:37;19.50;99.90
8420;DHT22;4247;48.550;8.822;2023-07-22T07:13:05;19.70;99.90
8420;DHT22;4247;48.550;8.822;2023-07-22T07:15:31;19.80;99.90
8420;DHT22;4247;48.550;8.822;2023-07-22T07:17:58;19.90;99.90
8420;DHT22;4247;48.550;8.822;2023-07-22T07:20:25;20.00;99.90
8420;DHT22;4247;48.550;8.822;2023-07-22T07:22:51;20.10;99.90
8420;DHT22;4247;48.550;8.822;2023-07-22T07:25:19;20.20;99.90
8420;DHT22;4247;48.550;8.822;2023-07-22T07:27:46;20.30;99.90
8420;DHT22;4247;48.550;8.822;2023-07-22T07:30:13;20.40;99.90
8420;DHT22;4247;48.550;8.822;2023-07-22T07:32:40;20.50;99.90
8420;DHT22;4247;48.550;8.822;2023-07-22T07:35:07;20.70;99.90
8420;DHT22;4247;48.550;8.822;2023-07-22T07:37:34;20.80;99.90
8420;DHT22;4247;48.550;8.822;2023-07-22T07:40:01;20.90;99.90
8420;DHT22;4247;48.550;8.822;2023-07-22T07:42:30;21.10;99.90
8420;DHT22;4247;48.550;8.822;2023-07-22T07:44:57;21.20;98.70
8420;DHT22;4247;48.550;8.822;2023-07-22T07:47:23;21.40;94.90
8420;DHT22;4247;48.550;8.822;2023-07-22T07:49:50;21.50;94.60
8420;DHT22;4247;48.550;8.822;2023-07-22T07:52:17;21.70;92.80
8420;DHT22;4247;48.550;8.822;2023-07-22T07:54:43;21.90;92.30
8420;DHT22;4247;48.550;8.822;2023-07-22T07:57:10;22.10;90.10
8420;DHT22;4247;48.550;8.822;2023-07-22T07:59:38;22.20;90.40
8420;DHT22;4247;48.550;8.822;2023-07-22T08:02:05;22.50;89.60
8420;DHT22;4247;48.550;8.822;2023-07-22T08:04:34;22.80;87.60
8420;DHT22;4247;48.550;8.822;2023-07-22T08:07:02;23.00;85.50
8420;DHT22;4247;48.550;8.822;2023-07-22T08:09:30;23.30;87.70
8420;DHT22;4247;48.550;8.822;2023-07-22T08:11:56;23.40;83.00
8420;DHT22;4247;48.550;8.822;2023-07-22T08:14:23;23.50;83.20
8420;DHT22;4247;48.550;8.822;2023-07-22T08:16:51;23.60;83.50
8420;DHT22;4247;48.550;8.822;2023-07-22T08:19:18;23.70;83.90
8420;DHT22;4247;48.550;8.822;2023-07-22T08:21:45;23.90;82.80
8420;DHT22;4247;48.550;8.822;2023-07-22T08:24:11;24.20;80.70
8420;DHT22;4247;48.550;8.822;2023-07-22T08:26:38;24.30;77.90
8420;DHT22;4247;48.550;8.822;2023-07-22T08:29:05;24.60;79.90
8420;DHT22;4247;48.550;8.822;2023-07-22T08:31:31;24.90;84.10
8420;DHT22;4247;48.550;8.822;2023-07-22T08:33:59;25.20;77.80
8420;DHT22;4247;48.550;8.822;2023-07-22T08:36:26;25.10;79.40
8420;DHT22;4247;48.550;8.822;2023-07-22T08:38:53;25.10;76.30
8420;DHT22;4247;48.550;8.822;2023-07-22T08:41:20;25.00;75.20
8420;DHT22;4247;48.550;8.822;2023-07-22T08:43:49;24.70;77.60
8420;DHT22;4247;48.550;8.822;2023-07-22T08:46:19;24.40;77.90
8420;DHT22;4247;48.550;8.822;2023-07-22T08:48:47;24.20;77.70
8420;DHT22;4247;48.550;8.822;2023-07-22T08:51:17;24.20;77.30
8420;DHT22;4247;48.550;8.822;2023-07-22T08:53:45;24.40;78.20
8420;DHT22;4247;48.550;8.822;2023-07-22T08:56:11;24.50;76.60
8420;DHT22;4247;48.550;8.822;2023-07-22T08:58:38;24.70;78.70
8420;DHT22;4247;48.550;8.822;2023-07-22T09:01:05;24.70;75.10
8420;DHT22;4247;48.550;8.822;2023-07-22T09:03:33;24.70;74.30
8420;DHT22;4247;48.550;8.822;2023-07-22T09:06:00;24.80;75.60
8420;DHT22;4247;48.550;8.822;2023-07-22T09:08:29;24.70;74.80
8420;DHT22;4247;48.550;8.822;2023-07-22T09:10:56;24.60;74.60
8420;DHT22;4247;48.550;8.822;2023-07-22T09:13:23;24.40;76.20
8420;DHT22;4247;48.550;8.822;2023-07-22T09:15:51;24.10;77.40
8420;DHT22;4247;48.550;8.822;2023-07-22T09:18:18;23.80;77.20
8420;DHT22;4247;48.550;8.822;2023-07-22T09:20:45;23.60;78.00
8420;DHT22;4247;48.550;8.822;2023-07-22T09:23:12;23.30;78.40
8420;DHT22;4247;48.550;8.822;2023-07-22T09:25:41;23.10;79.60
8420;DHT22;4247;48.550;8.822;2023-07-22T09:28:09;22.90;79.60
8420;DHT22;4247;48.550;8.822;2023-07-22T09:30:37;22.70;80.20
8420;DHT22;4247;48.550;8.822;2023-07-22T09:33:06;22.60;81.10
8420;DHT22;4247;48.550;8.822;2023-07-22T09:35:44;22.80;83.00
8420;DHT22;4247;48.550;8.822;2023-07-22T09:38:11;23.00;83.40
8420;DHT22;4247;48.550;8.822;2023-07-22T09:40:41;23.20;81.90
8420;DHT22;4247;48.550;8.822;2023-07-22T09:43:10;23.30;82.20
8420;DHT22;4247;48.550;8.822;2023-07-22T09:45:37;23.30;82.30
8420;DHT22;4247;48.550;8.822;2023-07-22T09:48:04;23.20;80.00
8420;DHT22;4247;48.550;8.822;2023-07-22T09:50:31;23.10;79.30
8420;DHT22;4247;48.550;8.822;2023-07-22T09:52:59;23.00;79.60
8420;DHT22;4247;48.550;8.822;2023-07-22T09:55:28;23.10;80.20
8420;DHT22;4247;48.550;8.822;2023-07-22T09:57:58;23.10;79.50
8420;DHT22;4247;48.550;8.822;2023-07-22T10:00:28;22.90;78.90
8420;DHT22;4247;48.550;8.822;2023-07-22T10:02:57;23.00;81.80
8420;DHT22;4247;48.550;8.822;2023-07-22T10:05:26;23.10;80.70
8420;DHT22;4247;48.550;8.822;2023-07-22T10:07:58;23.20;81.30
8420;DHT22;4247;48.550;8.822;2023-07-22T10:10:27;23.20;81.30
8420;DHT22;4247;48.550;8.822;2023-07-22T10:12:56;23.40;83.40
8420;DHT22;4247;48.550;8.822;2023-07-22T10:15:25;23.60;80.70
8420;DHT22;4247;48.550;8.822;2023-07-22T10:17:53;23.90;82.10
8420;DHT22;4247;48.550;8.822;2023-07-22T10:20:22;24.00;79.30
8420;DHT22;4247;48.550;8.822;2023-07-22T10:22:50;24.20;81.20
8420;DHT22;4247;48.550;8.822;2023-07-22T10:25:18;24.40;78.50
8420;DHT22;4247;48.550;8.822;2023-07-22T10:27:45;24.50;77.10
8420;DHT22;4247;48.550;8.822;2023-07-22T10:30:14;24.60;78.00
8420;DHT22;4247;48.550;8.822;2023-07-22T10:32:43;24.80;77.20
8420;DHT22;4247;48.550;8.822;2023-07-22T10:35:11;24.90;77.10
8420;DHT22;4247;48.550;8.822;2023-07-22T10:37:39;24.70;75.50
8420;DHT22;4247;48.550;8.822;2023-07-22T10:40:18;24.60;77.60
8420;DHT22;4247;48.550;8.822;2023-07-22T10:42:57;24.30;77.10
8420;DHT22;4247;48.550;8.822;2023-07-22T10:45:27;24.10;79.90
8420;DHT22;4247;48.550;8.822;2023-07-22T10:48:02;24.20;80.40
8420;DHT22;4247;48.550;8.822;2023-07-22T10:50:40;24.40;79.20
8420;DHT22;4247;48.550;8.822;2023-07-22T10:53:10;24.40;79.60
8420;DHT22;4247;48.550;8.822;2023-07-22T10:58:58;24.00;79.80
8420;DHT22;4247;48.550;8.822;2023-07-22T11:01:37;23.90;79.50
8420;DHT22;4247;48.550;8.822;2023-07-22T11:04:07;23.90;79.10
8420;DHT22;4247;48.550;8.822;2023-07-22T11:06:36;23.90;78.80
8420;DHT22;4247;48.550;8.822;2023-07-22T11:09:03;24.00;79.30
8420;DHT22;4247;48.550;8.822;2023-07-22T11:11:35;24.10;79.90
8420;DHT22;4247;48.550;8.822;2023-07-22T11:14:16;24.10;79.50
8420;DHT22;4247;48.550;8.822;2023-07-22T11:16:45;24.30;78.50
8420;DHT22;4247;48.550;8.822;2023-07-22T11:19:12;24.50;78.40
8420;DHT22;4247;48.550;8.822;2023-07-22T11:21:39;24.60;79.70
8420;DHT22;4247;48.550;8.822;2023-07-22T11:24:07;24.70;79.80
8420;DHT22;4247;48.550;8.822;2023-07-22T11:26:34;24.60;76.00
8420;DHT22;4247;48.550;8.822;2023-07-22T11:29:01;24.70;76.70
8420;DHT22;4247;48.550;8.822;2023-07-22T11:31:31;24.80;74.60
8420;DHT22;4247;48.550;8.822;2023-07-22T11:34:00;24.80;74.70
8420;DHT22;4247;48.550;8.822;2023-07-22T11:36:26;24.70;76.30
8420;DHT22;4247;48.550;8.822;2023-07-22T11:38:53;24.60;76.80
8420;DHT22;4247;48.550;8.822;2023-07-22T11:41:20;24.60;75.60
8420;DHT22;4247;48.550;8.822;2023-07-22T11:43:47;24.50;76.40
8420;DHT22;4247;48.550;8.822;2023-07-22T11:46:14;24.60;78.00
8420;DHT22;4247;48.550;8.822;2023-07-22T11:48:49;24.50;75.90
8420;DHT22;4247;48.550;8.822;2023-07-22T11:51:19;24.50;76.80
8420;DHT22;4247;48.550;8.822;2023-07-22T11:53:47;24.40;75.20
8420;DHT22;4247;48.550;8.822;2023-07-22T11:56:18;24.40;74.80
8420;DHT22;4247;48.550;8.822;2023-07-22T11:58:48;24.40;75.60
8420;DHT22;4247;48.550;8.822;2023-07-22T12:01:15;24.40;76.50
8420;DHT22;4247;48.550;8.822;2023-07-22T12:03:42;24.50;76.80
8420;DHT22;4247;48.550;8.822;2023-07-22T12:06:10;24.60;77.50
8420;DHT22;4247;48.550;8.822;2023-07-22T12:08:43;24.70;76.20
8420;DHT22;4247;48.550;8.822;2023-07-22T12:11:16;24.70;74.40
8420;DHT22;4247;48.550;8.822;2023-07-22T12:13:44;24.80;76.90
8420;DHT22;4247;48.550;8.822;2023-07-22T12:16:12;24.90;76.10
8420;DHT22;4247;48.550;8.822;2023-07-22T12:18:43;25.00;76.00
8420;DHT22;4247;48.550;8.822;2023-07-22T12:21:10;25.00;75.60
8420;DHT22;4247;48.550;8.822;2023-07-22T12:23:38;24.90;73.90
8420;DHT22;4247;48.550;8.822;2023-07-22T12:26:05;25.00;74.60
8420;DHT22;4247;48.550;8.822;2023-07-22T12:28:31;25.00;74.10
8420;DHT22;4247;48.550;8.822;2023-07-22T12:30:57;24.90;73.40
8420;DHT22;4247;48.550;8.822;2023-07-22T12:33:24;24.90;73.80
8420;DHT22;4247;48.550;8.822;2023-07-22T12:35:52;24.90;72.10
8420;DHT22;4247;48.550;8.822;2023-07-22T12:38:19;24.90;70.30
8420;DHT22;4247;48.550;8.822;2023-07-22T12:40:48;24.90;72.60
8420;DHT22;4247;48.550;8.822;2023-07-22T12:43:14;25.00;72.60
8420;DHT22;4247;48.550;8.822;2023-07-22T12:45:41;25.00;72.00
8420;DHT22;4247;48.550;8.822;2023-07-22T12:48:09;24.90;72.00
8420;DHT22;4247;48.550;8.822;2023-07-22T12:50:36;24.90;74.10
8420;DHT22;4247;48.550;8.822;2023-07-22T12:53:03;24.90;72.00
8420;DHT22;4247;48.550;8.822;2023-07-22T12:55:29;25.00;71.70
8420;DHT22;4247;48.550;8.822;2023-07-22T12:57:58;25.10;71.60
8420;DHT22;4247;48.550;8.822;2023-07-22T13:00:24;25.10;72.10
8420;DHT22;4247;48.550;8.822;2023-07-22T13:02:51;25.10;71.50
8420;DHT22;4247;48.550;8.822;2023-07-22T13:05:18;25.10;70.60
8420;DHT22;4247;48.550;8.822;2023-07-22T13:07:45;25.10;70.60
8420;DHT22;4247;48.550;8.822;2023-07-22T13:10:12;25.10;70.10
8420;DHT22;4247;48.550;8.822;2023-07-22T13:12:42;24.90;70.30
8420;DHT22;4247;48.550;8.822;2023-07-22T13:15:10;24.80;70.90
8420;DHT22;4247;48.550;8.822;2023-07-22T13:17:37;24.80;70.60
8420;DHT22;4247;48.550;8.822;2023-07-22T13:20:04;24.80;72.20
8420;DHT22;4247;48.550;8.822;2023-07-22T13:22:35;24.90;72.50
8420;DHT22;4247;48.550;8.822;2023-07-22T13:25:02;24.80;70.60
8420;DHT22;4247;48.550;8.822;2023-07-22T13:27:29;24.70;70.30
8420;DHT22;4247;48.550;8.822;2023-07-22T13:29:56;24.80;72.50
8420;DHT22;4247;48.550;8.822;2023-07-22T13:32:24;24.90;73.00
8420;DHT22;4247;48.550;8.822;2023-07-22T13:34:51;24.90;70.50
8420;DHT22;4247;48.550;8.822;2023-07-22T13:37:18;24.90;70.30
8420;DHT22;4247;48.550;8.822;2023-07-22T13:39:45;25.00;70.10
8420;DHT22;4247;48.550;8.822;2023-07-22T13:42:11;24.90;69.40
8420;DHT22;4247;48.550;8.822;2023-07-22T13:44:38;24.90;69.10
8420;DHT22;4247;48.550;8.822;2023-07-22T13:47:05;24.80;68.50
8420;DHT22;4247;48.550;8.822;2023-07-22T13:49:33;24.80;70.40
8420;DHT22;4247;48.550;8.822;2023-07-22T13:52:00;24.80;70.50
8420;DHT22;4247;48.550;8.822;2023-07-22T13:54:26;24.90;70.60
8420;DHT22;4247;48.550;8.822;2023-07-22T13:56:53;25.10;71.00
8420;DHT22;4247;48.550;8.822;2023-07-22T13:59:20;25.20;71.20
8420;DHT22;4247;48.550;8.822;2023-07-22T14:01:47;25.20;69.60
8420;DHT22;4247;48.550;8.822;2023-07-22T14:04:13;25.30;69.30
8420;DHT22;4247;48.550;8.822;2023-07-22T14:06:41;25.30;70.60
8420;DHT22;4247;48.550;8.822;2023-07-22T14:09:08;25.30;70.30
8420;DHT22;4247;48.550;8.822;2023-07-22T14:11:35;25.40;69.30
8420;DHT22;4247;48.550;8.822;2023-07-22T14:14:02;25.40;69.10
8420;DHT22;4247;48.550;8.822;2023-07-22T14:16:29;25.40;68.50
8420;DHT22;4247;48.550;8.822;2023-07-22T14:18:55;25.50;70.80
8420;DHT22;4247;48.550;8.822;2023-07-22T14:21:22;25.50;69.00
8420;DHT22;4247;48.550;8.822;2023-07-22T14:23:50;25.40;67.60
8420;DHT22;4247;48.550;8.822;2023-07-22T14:26:17;25.40;66.00
8420;DHT22;4247;48.550;8.822;2023-07-22T14:28:46;25.50;66.90
8420;DHT22;4247;48.550;8.822;2023-07-22T14:31:13;25.40;66.90
8420;DHT22;4247;48.550;8.822;2023-07-22T14:33:39;25.40;67.30
8420;DHT22;4247;48.550;8.822;2023-07-22T14:36:07;25.40;68.30
8420;DHT22;4247;48.550;8.822;2023-07-22T14:38:34;25.30;68.70
8420;DHT22;4247;48.550;8.822;2023-07-22T14:41:05;25.40;68.10
8420;DHT22;4247;48.550;8.822;2023-07-22T14:43:32;25.40;68.50
8420;DHT22;4247;48.550;8.822;2023-07-22T14:45:59;25.40;66.60
8420;DHT22;4247;48.550;8.822;2023-07-22T14:48:26;25.40;66.70
8420;DHT22;4247;48.550;8.822;2023-07-22T14:50:53;25.30;67.70
8420;DHT22;4247;48.550;8.822;2023-07-22T14:53:19;25.30;66.70
8420;DHT22;4247;48.550;8.822;2023-07-22T14:55:46;25.20;65.00
8420;DHT22;4247;48.550;8.822;2023-07-22T14:58:14;25.30;66.60
8420;DHT22;4247;48.550;8.822;2023-07-22T15:00:41;25.30;69.00
8420;DHT22;4247;48.550;8.822;2023-07-22T15:03:08;25.50;68.00
8420;DHT22;4247;48.550;8.822;2023-07-22T15:05:35;25.50;67.30
8420;DHT22;4247;48.550;8.822;2023-07-22T15:08:02;25.60;68.10
8420;DHT22;4247;48.550;8.822;2023-07-22T15:10:29;25.60;67.30
8420;DHT22;4247;48.550;8.822;2023-07-22T15:12:56;25.60;66.60
8420;DHT22;4247;48.550;8.822;2023-07-22T15:15:24;25.60;68.40
8420;DHT22;4247;48.550;8.822;2023-07-22T15:17:50;25.60;67.40
8420;DHT22;4247;48.550;8.822;2023-07-22T15:20:17;25.50;66.20
8420;DHT22;4247;48.550;8.822;2023-07-22T15:22:44;25.50;66.70
8420;DHT22;4247;48.550;8.822;2023-07-22T15:25:11;25.40;66.40
8420;DHT22;4247;48.550;8.822;2023-07-22T15:27:38;25.30;66.10
8420;DHT22;4247;48.550;8.822;2023-07-22T15:30:05;25.30;67.80
8420;DHT22;4247;48.550;8.822;2023-07-22T15:32:34;25.20;65.90
8420;DHT22;4247;48.550;8.822;2023-07-22T15:35:00;25.20;66.90
8420;DHT22;4247;48.550;8.822;2023-07-22T15:37:27;25.20;67.10
8420;DHT22;4247;48.550;8.822;2023-07-22T15:39:54;25.20;68.00
8420;DHT22;4247;48.550;8.822;2023-07-22T15:42:20;25.20;66.80
8420;DHT22;4247;48.550;8.822;2023-07-22T15:44:47;25.30;67.50
8420;DHT22;4247;48.550;8.822;2023-07-22T15:47:14;25.30;66.80
8420;DHT22;4247;48.550;8.822;2023-07-22T15:49:42;25.30;67.40
8420;DHT22;4247;48.550;8.822;2023-07-22T15:52:09;25.20;65.50
8420;DHT22;4247;48.550;8.822;2023-07-22T15:54:36;25.20;66.20
8420;DHT22;4247;48.550;8.822;2023-07-22T15:57:02;25.20;65.60
8420;DHT22;4247;48.550;8.822;2023-07-22T15:59:29;25.10;64.50
8420;DHT22;4247;48.550;8.822;2023-07-22T16:01:56;25.10;64.40
8420;DHT22;4247;48.550;8.822;2023-07-22T16:04:23;25.10;65.50
8420;DHT22;4247;48.550;8.822;2023-07-22T16:06:51;25.20;66.80